KRCA

Ellsworth AFB Airport

Rapid City, South Dakota, USA
METAR KRCA 220356Z AUTO 35023G28KT 1 1/8SM BLSN BR OVC013 M10/M10 A2979 RMK AO2 PK WND 36035/46 SLP146 P0000 T11021102 FZRANO $
Observed Flight Rules
Jan-22 @ 03:56 UTC (18 minutes ago) Instrument Flight Rules
Wind Visibility Clouds Conditions
350° at 23 knots
 Gusting to 28 knots
113 miles
  • Overcast at 1,300' AGL
  • Blowing
  • Snow
  • Mist
Temperatures Readings Precipitation
Current -10°C / 14°F
Dewpoint -10°C / 14°F
Humidity 100%
Altimeter 29.79" Hg
Pressure 1014.6 hPa
Elevation 999
Current Rain 0.01
METAR KRCA 220356Z AUTO 35023G28KT 1 1/8SM BLSN BR OVC013 M10/M10 A2979 RMK AO2 PK WND 36035/46 SLP146 P0000 T11021102 FZRANO $
Observed Flight Rules
Jan-22 @ 03:56 UTC
(18 minutes ago)
IFR
Wind Visibility
350° at 23 knots
 Gusting to 28 knots
113 miles
Clouds
  • Overcast at 1,300' AGL
Conditions
  • Blowing
  • Snow
  • Mist
Temperature Dewpoint
-10°C / 14°F -10°C / 14°F
Humidity Altimeter Pressure
100% 29.79" Hg 1014.6 hPa
Current Rain
0.01